createdAt,value
2022-08-15T00:02:34.033Z,2.90
2022-08-15T00:05:10.192Z,3.22
2022-08-15T00:07:48.285Z,3.55
2022-08-15T00:11:00.177Z,4.05
2022-08-15T00:13:14.582Z,4.75
2022-08-15T00:15:46.542Z,3.75
2022-08-15T00:18:14.416Z,3.78
2022-08-15T00:20:50.421Z,5.70
2022-08-15T00:23:24.563Z,3.50
2022-08-15T00:25:59.420Z,3.92
2022-08-15T00:28:46.397Z,4.55
2022-08-15T00:31:41.238Z,3.08
2022-08-15T00:34:39.398Z,2.67
2022-08-15T00:37:05.116Z,2.92
2022-08-15T00:39:33.562Z,3.35
2022-08-15T00:42:07.248Z,3.88
2022-08-15T00:44:52.591Z,4.03
2022-08-15T00:50:07.959Z,4.93
2022-08-15T00:52:54.908Z,3.17
2022-08-15T00:55:27.058Z,3.20
2022-08-15T00:58:00.488Z,3.85
2022-08-15T01:00:44.802Z,3.63
2022-08-15T01:05:51.773Z,3.17
2022-08-15T01:08:27.578Z,3.28
2022-08-15T01:11:02.795Z,5.07
2022-08-15T01:14:04.015Z,5.20
2022-08-15T01:16:34.504Z,3.97
2022-08-15T01:19:05.464Z,4.43
2022-08-15T01:21:47.269Z,4.25
2022-08-15T01:24:31.226Z,3.28
2022-08-15T01:27:19.410Z,4.32
2022-08-15T01:29:47.764Z,4.05
2022-08-15T01:32:15.474Z,3.55
2022-08-15T01:34:45.695Z,5.57
2022-08-15T01:37:13.089Z,4.88
2022-08-15T01:39:59.636Z,4.03
2022-08-15T01:42:39.575Z,2.70
2022-08-15T01:45:19.470Z,3.47
2022-08-15T01:48:02.082Z,4.13
2022-08-15T01:50:37.137Z,4.45
2022-08-15T01:53:19.451Z,3.97
2022-08-15T01:55:56.329Z,3.65
2022-08-15T01:58:25.252Z,3.38
2022-08-15T02:01:07.653Z,4.03
2022-08-15T02:03:49.158Z,4.93
2022-08-15T02:06:35.085Z,4.80
2022-08-15T02:09:18.104Z,3.67
2022-08-15T02:13:02.215Z,3.90
2022-08-15T02:14:53.358Z,3.75
2022-08-15T02:17:20.974Z,2.65
2022-08-15T02:19:52.342Z,4.20
2022-08-15T02:22:25.914Z,3.30
2022-08-15T02:24:57.116Z,4.30
2022-08-15T02:27:26.189Z,3.88
2022-08-15T02:29:53.861Z,4.43
2022-08-15T02:32:27.173Z,3.65
2022-08-15T02:35:02.940Z,3.15
2022-08-15T02:37:31.463Z,5.47
2022-08-15T02:40:45.308Z,3.53
2022-08-15T02:42:55.929Z,4.13
2022-08-15T02:45:23.321Z,4.35
2022-08-15T02:47:50.276Z,3.45
2022-08-15T02:50:18.094Z,4.00
2022-08-15T02:52:53.411Z,3.38
2022-08-15T02:55:21.736Z,4.53
2022-08-15T02:57:59.962Z,5.22
2022-08-15T03:00:33.246Z,4.30
2022-08-15T03:03:07.731Z,3.15
2022-08-15T03:05:36.725Z,3.88
2022-08-15T03:08:05.116Z,3.80
2022-08-15T03:10:32.838Z,3.50
2022-08-15T03:13:13.283Z,3.65
2022-08-15T03:15:57.660Z,3.63
2022-08-15T03:18:31.202Z,3.80
2022-08-15T03:20:59.409Z,4.78
2022-08-15T03:23:42.306Z,3.85
2022-08-15T03:26:25.989Z,4.65
2022-08-15T03:29:04.988Z,5.75
2022-08-15T03:31:41.511Z,3.67
2022-08-15T03:34:15.440Z,3.67
2022-08-15T03:36:52.386Z,4.40
2022-08-15T03:39:21.076Z,3.50
2022-08-15T03:41:54.882Z,3.63
2022-08-15T03:44:26.790Z,3.33
2022-08-15T03:46:56.090Z,6.38
2022-08-15T03:50:23.833Z,3.35
2022-08-15T03:52:12.204Z,5.50
2022-08-15T03:54:39.714Z,4.38
2022-08-15T03:57:09.870Z,3.42
2022-08-15T03:59:40.297Z,3.83
2022-08-15T04:02:30.882Z,6.70
2022-08-15T04:04:59.727Z,5.85
2022-08-15T04:07:40.371Z,4.82
2022-08-15T04:10:36.741Z,5.47
2022-08-15T04:13:00.629Z,5.60
2022-08-15T04:15:30.440Z,4.18
2022-08-15T04:18:00.980Z,3.30
2022-08-15T04:20:45.166Z,3.42
2022-08-15T04:23:19.145Z,4.78
2022-08-15T04:25:53.879Z,2.80
2022-08-15T04:28:28.595Z,4.03
2022-08-15T04:31:13.994Z,3.17
2022-08-15T04:34:22.094Z,5.97
2022-08-15T04:36:30.992Z,3.70
2022-08-15T04:39:02.910Z,4.15
2022-08-15T04:41:35.417Z,3.58
2022-08-15T04:44:04.896Z,3.40
2022-08-15T04:46:31.718Z,3.15
2022-08-15T04:48:59.804Z,3.30
2022-08-15T04:51:34.663Z,4.45
2022-08-15T04:54:04.553Z,4.00
2022-08-15T04:56:47.418Z,4.57
2022-08-15T04:59:30.018Z,3.95
2022-08-15T05:02:53.617Z,3.17
2022-08-15T05:04:56.073Z,4.22
2022-08-15T05:07:27.420Z,3.95
2022-08-15T05:10:03.586Z,5.47
2022-08-15T05:12:39.587Z,3.45
2022-08-15T05:15:11.239Z,3.40
2022-08-15T05:17:56.640Z,3.17
2022-08-15T05:20:25.595Z,3.58
2022-08-15T05:22:55.077Z,3.75
2022-08-15T05:25:22.533Z,8.57
2022-08-15T05:27:54.657Z,3.50
2022-08-15T05:30:28.065Z,3.40
2022-08-15T05:33:57.261Z,4.88
2022-08-15T05:36:27.365Z,4.22
2022-08-15T05:39:01.706Z,3.45
2022-08-15T05:41:57.428Z,3.10
2022-08-15T05:44:46.626Z,4.03
2022-08-15T05:47:45.146Z,3.30
2022-08-15T05:50:45.188Z,3.20
2022-08-15T05:53:17.545Z,3.67
2022-08-15T05:55:54.414Z,7.70
2022-08-15T05:58:43.390Z,3.38
2022-08-15T06:01:36.120Z,3.10
2022-08-15T06:04:29.892Z,3.88
2022-08-15T06:07:00.301Z,4.40
2022-08-15T06:09:43.561Z,4.85
2022-08-15T06:12:26.905Z,2.92
2022-08-15T06:15:07.606Z,3.53
2022-08-15T06:17:44.043Z,4.32
2022-08-15T06:20:28.960Z,3.13
2022-08-15T06:23:37.219Z,4.03
2022-08-15T06:26:38.244Z,4.88
2022-08-15T06:29:26.761Z,3.92
2022-08-15T06:32:22.738Z,4.63
2022-08-15T06:35:30.996Z,3.55
2022-08-15T06:38:36.690Z,4.47
2022-08-15T06:41:50.710Z,3.67
2022-08-15T06:44:21.493Z,4.78
2022-08-15T06:46:53.509Z,5.50
2022-08-15T06:49:24.644Z,5.57
2022-08-15T06:51:52.148Z,3.72
2022-08-15T06:54:38.569Z,4.53
2022-08-15T06:57:42.731Z,4.50
2022-08-15T07:00:34.283Z,3.88
2022-08-15T07:03:16.280Z,3.85
2022-08-15T07:05:53.060Z,3.55
2022-08-15T07:08:29.107Z,4.32
2022-08-15T07:11:10.298Z,3.63
2022-08-15T07:13:58.185Z,4.88
2022-08-15T07:16:44.037Z,4.35
2022-08-15T07:21:53.287Z,3.00
2022-08-15T07:24:34.399Z,3.45
2022-08-15T07:27:06.995Z,3.58
2022-08-15T07:29:40.445Z,3.22
2022-08-15T07:32:19.104Z,3.35
2022-08-15T07:35:19.207Z,3.97
2022-08-15T07:37:48.805Z,3.15
2022-08-15T07:40:29.298Z,3.30
2022-08-15T07:43:00.810Z,3.88
2022-08-15T07:45:42.402Z,4.50
2022-08-15T07:48:29.805Z,5.13
2022-08-15T07:51:31.065Z,3.92
2022-08-15T07:54:31.271Z,2.83
2022-08-15T07:57:05.090Z,3.45
2022-08-15T07:59:54.436Z,5.15
2022-08-15T08:02:37.444Z,5.60
2022-08-15T08:07:54.506Z,7.28
2022-08-15T08:10:25.166Z,3.83
2022-08-15T08:13:02.078Z,3.35
2022-08-15T08:16:10.914Z,3.95
2022-08-15T08:19:24.394Z,4.53
2022-08-15T08:39:43.783Z,4.35
2022-08-15T08:42:50.310Z,3.25
2022-08-15T08:45:35.036Z,4.18
2022-08-15T08:48:39.578Z,4.82
2022-08-15T08:51:21.264Z,5.85
2022-08-15T08:53:56.442Z,3.90
2022-08-15T08:56:34.797Z,4.88
2022-08-15T08:59:20.892Z,3.92
2022-08-15T09:02:20.423Z,3.20
2022-08-15T09:04:52.303Z,3.78
2022-08-15T09:07:29.626Z,3.35
2022-08-15T09:10:01.951Z,3.35
2022-08-15T09:13:00.209Z,4.05
2022-08-15T09:15:41.325Z,4.65
2022-08-15T09:18:49.546Z,5.28
2022-08-15T09:21:18.439Z,7.20
2022-08-15T09:23:48.685Z,3.35
2022-08-15T09:26:19.775Z,4.60
2022-08-15T09:29:23.247Z,5.47
2022-08-15T09:32:30.663Z,4.55
2022-08-15T09:35:16.010Z,4.45
2022-08-15T09:37:54.646Z,6.53
2022-08-15T09:41:15.287Z,3.60
2022-08-15T09:44:37.667Z,4.70
2022-08-15T09:47:10.718Z,3.70
2022-08-15T09:50:33.329Z,5.50
2022-08-15T09:53:18.797Z,4.32
2022-08-15T09:55:53.980Z,4.85
2022-08-15T09:58:27.661Z,4.35
2022-08-15T10:01:16.464Z,3.20
2022-08-15T10:03:48.526Z,5.82
2022-08-15T10:06:32.457Z,5.82
2022-08-15T10:09:06.957Z,4.88
2022-08-15T10:11:45.929Z,3.50
2022-08-15T10:14:21.872Z,8.30
2022-08-15T10:16:53.547Z,4.45
2022-08-15T10:19:34.176Z,4.95
2022-08-15T10:22:45.021Z,5.55
2022-08-15T10:25:18.008Z,2.90
2022-08-15T10:27:59.450Z,67.07
2022-08-15T10:30:45.672Z,90.25
2022-08-15T10:33:23.953Z,13.02
2022-08-15T10:35:52.286Z,8.73
2022-08-15T10:38:32.114Z,4.47
2022-08-15T10:41:18.847Z,5.93
2022-08-15T10:44:35.039Z,6.53
2022-08-15T10:47:17.183Z,13.40
2022-08-15T10:50:02.304Z,10.45
2022-08-15T10:52:53.484Z,49.08
2022-08-15T10:55:57.178Z,47.97
2022-08-15T10:58:30.017Z,94.50
2022-08-15T11:01:08.972Z,73.10
2022-08-15T11:04:58.037Z,59.67
2022-08-15T11:06:40.869Z,8.93
2022-08-15T11:09:18.631Z,25.30
2022-08-15T11:11:59.444Z,5.90
2022-08-15T11:14:47.388Z,9.43
2022-08-15T11:17:20.078Z,6.60
2022-08-15T11:20:10.412Z,7.75
2022-08-15T11:22:54.138Z,9.43
2022-08-15T11:25:26.131Z,9.27
2022-08-15T11:28:35.990Z,9.00
2022-08-15T11:31:18.569Z,5.47
